Time;durP1;ratioP1;P1;durP2;ratioP2;P2;SDS_P1;SDS_P2;PMS_P1;PMS_P2;Temp;Humidity;BMP_temperature;BMP_pressure;BME280_temperature;BME280_humidity;BME280_pressure;Samples;Min_cycle;Max_cycle;Signal;HPM_P1;HPM_P2
2020/12/04 00:01:36;;;;;;;27.70;13.45;;;3.00;83.40;;;;;;5020875;28;20083;-64
2020/12/04 00:04:02;;;;;;;29.90;13.85;;;3.00;83.30;;;;;;5031953;28;20108;-64
2020/12/04 00:06:28;;;;;;;26.35;13.32;;;3.00;83.30;;;;;;5031431;28;20413;-63
2020/12/04 00:08:54;;;;;;;26.38;13.38;;;3.00;83.40;;;;;;5032662;28;20025;-63
2020/12/04 00:11:20;;;;;;;22.63;13.63;;;2.90;83.20;;;;;;5032895;28;20096;-63
2020/12/04 00:13:46;;;;;;;23.42;12.88;;;2.90;83.40;;;;;;5031870;28;20043;-63
2020/12/04 00:16:12;;;;;;;30.52;13.57;;;3.00;83.50;;;;;;5023516;28;20101;-64
2020/12/04 00:18:37;;;;;;;24.88;12.85;;;2.90;83.40;;;;;;5029997;28;20492;-64
2020/12/04 00:21:03;;;;;;;25.15;13.50;;;2.90;83.40;;;;;;5035433;28;20049;-64
2020/12/04 00:23:29;;;;;;;25.75;13.73;;;3.00;83.80;;;;;;5035620;28;20018;-63
2020/12/04 00:25:55;;;;;;;24.25;12.38;;;3.00;83.60;;;;;;5033499;28;20021;-63
2020/12/04 00:28:20;;;;;;;25.10;12.80;;;3.00;83.50;;;;;;5030792;28;20439;-63
2020/12/04 00:30:46;;;;;;;21.75;12.88;;;3.00;83.30;;;;;;5031344;28;20109;-63
2020/12/04 00:33:12;;;;;;;25.52;12.23;;;2.90;83.10;;;;;;5032096;28;20025;-63
2020/12/04 00:35:38;;;;;;;27.63;14.25;;;2.90;83.30;;;;;;5030026;28;20040;-64
2020/12/04 00:38:03;;;;;;;22.77;12.60;;;2.90;83.40;;;;;;5031366;28;20079;-63
2020/12/04 00:40:30;;;;;;;25.15;13.82;;;2.90;83.50;;;;;;5026384;28;20084;-63
2020/12/04 00:42:56;;;;;;;21.30;12.48;;;2.90;83.40;;;;;;5035005;28;20029;-63
2020/12/04 00:45:23;;;;;;;17.20;10.73;;;2.80;83.50;;;;;;5030181;28;20354;-63
2020/12/04 00:47:50;;;;;;;16.55;10.38;;;2.90;84.20;;;;;;5021028;28;20098;-63
2020/12/04 00:50:16;;;;;;;19.92;10.63;;;2.90;83.90;;;;;;5033068;28;20346;-63
2020/12/04 00:52:41;;;;;;;20.27;10.40;;;3.00;84.00;;;;;;5039756;28;20029;-64
2020/12/04 00:55:07;;;;;;;19.63;11.10;;;3.10;84.00;;;;;;5025061;28;20037;-64
2020/12/04 00:57:33;;;;;;;18.00;11.38;;;3.10;83.80;;;;;;5034208;28;20484;-64
2020/12/04 00:59:59;;;;;;;22.38;11.95;;;3.20;83.50;;;;;;5030980;28;20362;-63
2020/12/04 01:02:24;;;;;;;23.60;12.40;;;3.20;83.30;;;;;;5029043;28;20031;-64
2020/12/04 01:04:50;;;;;;;21.10;11.15;;;3.20;83.30;;;;;;5031533;28;20026;-63
2020/12/04 01:07:16;;;;;;;23.35;12.10;;;3.20;83.20;;;;;;5033942;28;20013;-62
2020/12/04 01:09:41;;;;;;;25.38;12.98;;;3.30;83.20;;;;;;5033336;28;20025;-63
2020/12/04 01:12:07;;;;;;;20.05;11.63;;;3.30;83.10;;;;;;5034217;28;20041;-63
2020/12/04 01:14:33;;;;;;;24.20;12.43;;;3.30;83.00;;;;;;5024975;28;20037;-63
2020/12/04 01:16:59;;;;;;;26.25;13.27;;;3.30;82.60;;;;;;5030349;28;20044;-63
2020/12/04 01:19:25;;;;;;;24.42;12.82;;;3.30;82.50;;;;;;5034360;28;20483;-63
2020/12/04 01:21:51;;;;;;;23.45;11.93;;;3.30;82.60;;;;;;5034363;28;20025;-63
2020/12/04 01:24:18;;;;;;;24.40;13.82;;;3.20;82.70;;;;;;5032123;28;20022;-63
2020/12/04 01:26:44;;;;;;;25.15;13.98;;;3.30;82.80;;;;;;5040957;28;20027;-63
2020/12/04 01:29:09;;;;;;;31.65;15.23;;;3.20;82.90;;;;;;5032379;28;20026;-63
2020/12/04 01:31:35;;;;;;;31.65;16.45;;;3.20;82.70;;;;;;5033502;28;20036;-63
2020/12/04 01:34:01;;;;;;;25.65;13.90;;;3.10;82.50;;;;;;5031542;28;20425;-63
2020/12/04 01:36:27;;;;;;;30.77;15.52;;;3.10;82.70;;;;;;5026371;28;20087;-63
2020/12/04 01:38:53;;;;;;;34.90;16.10;;;3.00;82.80;;;;;;5034896;28;20079;-63
2020/12/04 01:41:19;;;;;;;27.77;14.32;;;2.90;82.90;;;;;;5032857;28;20045;-63
2020/12/04 01:43:45;;;;;;;31.50;15.63;;;2.90;83.10;;;;;;5033853;28;20056;-63
2020/12/04 01:46:11;;;;;;;38.45;17.60;;;2.90;83.30;;;;;;5026497;28;20052;-63
2020/12/04 01:48:37;;;;;;;32.60;17.60;;;2.80;83.60;;;;;;5034516;28;20124;-63
2020/12/04 01:51:03;;;;;;;31.58;16.52;;;2.80;83.80;;;;;;5033737;28;20428;-63
2020/12/04 01:53:29;;;;;;;31.20;15.00;;;2.80;84.10;;;;;;5033181;28;20057;-63
2020/12/04 01:55:55;;;;;;;29.52;15.60;;;2.80;84.40;;;;;;5024491;28;20047;-63
2020/12/04 01:58:20;;;;;;;27.77;13.85;;;2.80;84.50;;;;;;5031091;28;20033;-64
2020/12/04 02:00:46;;;;;;;36.58;18.42;;;2.90;84.40;;;;;;5032358;28;20017;-63
2020/12/04 02:03:13;;;;;;;31.92;14.05;;;3.00;84.20;;;;;;5022961;28;20137;-63
2020/12/04 02:05:45;;;;;;;32.70;16.00;;;2.90;83.90;;;;;;5028075;28;20022;-64
2020/12/04 02:08:13;;;;;;;34.22;15.40;;;2.90;83.90;;;;;;5027919;28;20481;-63
2020/12/04 02:10:48;;;;;;;29.38;15.00;;;2.90;84.10;;;;;;5037456;28;20033;-63
2020/12/04 02:13:14;;;;;;;33.88;14.63;;;2.80;84.10;;;;;;5033016;28;20107;-63
2020/12/04 02:15:41;;;;;;;29.52;14.13;;;2.80;84.30;;;;;;5049720;28;20028;-63
2020/12/04 02:18:07;;;;;;;24.98;13.93;;;2.80;84.50;;;;;;5034309;28;20068;-63
2020/12/04 02:20:34;;;;;;;26.50;13.38;;;2.90;84.60;;;;;;5030114;28;20037;-63
2020/12/04 02:23:00;;;;;;;33.03;16.83;;;3.00;84.50;;;;;;5030374;28;20500;-63
2020/12/04 02:25:26;;;;;;;28.33;14.75;;;3.00;84.50;;;;;;5038724;28;20026;-63
2020/12/04 02:27:52;;;;;;;38.13;17.60;;;3.00;84.10;;;;;;5032206;28;20057;-63
2020/12/04 02:30:34;;;;;;;37.45;19.25;;;3.00;84.00;;;;;;5025274;28;20477;-63
2020/12/04 02:33:00;;;;;;;41.88;20.52;;;3.00;83.60;;;;;;5030461;28;20025;-63
2020/12/04 02:35:26;;;;;;;38.13;16.52;;;2.90;83.80;;;;;;5026178;28;20044;-63
2020/12/04 02:37:54;;;;;;;40.58;17.30;;;2.80;83.80;;;;;;5034464;28;20026;-64
2020/12/04 02:40:23;;;;;;;38.42;16.58;;;2.80;84.20;;;;;;5021167;28;20014;-64
2020/12/04 02:42:50;;;;;;;33.33;16.70;;;2.90;84.50;;;;;;5025795;28;20096;-63
2020/12/04 02:45:16;;;;;;;43.22;17.50;;;2.90;84.60;;;;;;5031291;28;20473;-63
2020/12/04 02:47:42;;;;;;;35.05;16.85;;;2.90;84.60;;;;;;5034243;28;20474;-63
2020/12/04 02:50:08;;;;;;;34.55;16.55;;;2.90;84.70;;;;;;5021299;28;20021;-63
2020/12/04 02:52:34;;;;;;;35.65;17.23;;;2.90;84.60;;;;;;5031843;28;20030;-63
2020/12/04 02:54:59;;;;;;;41.67;19.45;;;2.90;84.20;;;;;;5035226;28;20014;-63
2020/12/04 02:57:25;;;;;;;48.53;22.27;;;2.90;84.30;;;;;;5031262;28;20032;-64
2020/12/04 02:59:51;;;;;;;49.05;20.75;;;2.90;84.20;;;;;;5031419;28;20022;-63
2020/12/04 03:02:16;;;;;;;41.38;19.20;;;2.90;84.20;;;;;;5029324;28;20037;-63
2020/12/04 03:04:43;;;;;;;41.15;19.52;;;2.80;84.30;;;;;;5029299;28;20017;-63
2020/12/04 03:07:10;;;;;;;39.00;18.65;;;2.80;84.50;;;;;;5030523;28;20346;-63
2020/12/04 03:09:36;;;;;;;41.35;19.15;;;2.80;84.60;;;;;;5027139;28;20026;-63
2020/12/04 03:12:02;;;;;;;40.72;18.17;;;2.80;84.70;;;;;;5030581;28;20100;-63
2020/12/04 03:14:27;;;;;;;53.25;21.70;;;2.80;84.70;;;;;;5032138;28;20100;-63
2020/12/04 03:16:53;;;;;;;39.63;17.95;;;2.70;84.70;;;;;;5030414;28;20033;-63
2020/12/04 03:19:19;;;;;;;43.30;16.77;;;2.70;84.80;;;;;;5027060;28;20018;-63
2020/12/04 03:21:45;;;;;;;35.10;16.92;;;2.70;84.90;;;;;;5023679;28;20071;-63
2020/12/04 03:24:11;;;;;;;44.58;21.23;;;2.70;85.10;;;;;;5032780;28;20420;-63
2020/12/04 03:26:36;;;;;;;43.63;18.33;;;2.80;85.20;;;;;;5033277;28;20059;-63
2020/12/04 03:29:02;;;;;;;51.05;21.05;;;2.80;85.30;;;;;;5032348;28;20042;-63
2020/12/04 03:31:28;;;;;;;47.75;22.92;;;2.90;85.30;;;;;;5033208;28;20473;-63
2020/12/04 03:33:54;;;;;;;43.17;19.48;;;2.80;84.70;;;;;;5032864;28;20029;-63
2020/12/04 03:36:19;;;;;;;40.30;18.77;;;2.80;84.70;;;;;;5032861;28;20036;-63
2020/12/04 03:38:45;;;;;;;34.80;17.35;;;2.80;84.80;;;;;;5032022;28;20543;-63
2020/12/04 03:41:11;;;;;;;36.10;17.77;;;2.80;85.10;;;;;;5028745;28;20080;-63
2020/12/04 03:43:40;;;;;;;42.65;19.95;;;2.90;85.40;;;;;;5020909;28;20026;-63
2020/12/04 03:46:09;;;;;;;48.67;20.70;;;2.90;85.20;;;;;;5016171;28;20018;-63
2020/12/04 03:48:35;;;;;;;41.55;18.95;;;2.90;85.00;;;;;;5023625;28;20057;-64
2020/12/04 03:51:01;;;;;;;39.50;19.13;;;2.90;85.00;;;;;;5032530;28;20104;-63
2020/12/04 03:53:26;;;;;;;48.63;20.25;;;2.90;85.00;;;;;;5032234;28;20108;-63
2020/12/04 03:55:52;;;;;;;42.15;19.40;;;2.90;84.90;;;;;;5032630;28;20037;-64
2020/12/04 03:58:17;;;;;;;36.83;17.33;;;2.90;84.90;;;;;;5031755;28;20430;-63
2020/12/04 04:00:43;;;;;;;39.70;17.65;;;2.90;85.50;;;;;;5022383;28;20022;-63
2020/12/04 04:03:09;;;;;;;48.50;23.38;;;2.90;85.00;;;;;;5014078;28;20022;-63
2020/12/04 04:05:35;;;;;;;44.72;21.00;;;2.90;84.90;;;;;;5027052;28;20028;-63
2020/12/04 04:08:01;;;;;;;47.80;20.50;;;2.90;84.70;;;;;;5024956;28;20029;-63
2020/12/04 04:10:26;;;;;;;43.50;21.33;;;2.90;84.90;;;;;;5030446;28;20025;-63
2020/12/04 04:12:52;;;;;;;52.28;22.27;;;2.90;85.10;;;;;;5031139;28;20036;-63
2020/12/04 04:15:18;;;;;;;54.08;22.70;;;2.90;84.90;;;;;;5028356;28;20543;-63
2020/12/04 04:17:43;;;;;;;51.35;23.30;;;2.90;84.60;;;;;;5024954;28;20489;-63
2020/12/04 04:20:09;;;;;;;45.10;21.98;;;2.80;84.50;;;;;;5020172;28;20080;-63
2020/12/04 04:22:35;;;;;;;40.13;21.08;;;2.80;84.70;;;;;;5026318;28;20112;-63
2020/12/04 04:25:00;;;;;;;43.35;19.98;;;2.80;85.00;;;;;;5029483;28;20358;-63
2020/12/04 04:27:26;;;;;;;42.03;21.00;;;2.80;85.00;;;;;;5015669;28;20062;-63
2020/12/04 04:29:52;;;;;;;39.90;18.05;;;2.80;85.00;;;;;;5025775;28;20068;-63
2020/12/04 04:32:17;;;;;;;47.92;22.30;;;2.80;85.10;;;;;;5013193;28;20037;-63
2020/12/04 04:34:43;;;;;;;48.47;24.15;;;2.80;84.90;;;;;;5023394;28;20031;-63
2020/12/04 04:37:09;;;;;;;44.17;22.08;;;2.80;84.60;;;;;;5023679;28;20112;-63
2020/12/04 04:39:34;;;;;;;49.92;22.23;;;2.80;84.70;;;;;;5031613;28;20454;-63
2020/12/04 04:42:00;;;;;;;49.35;21.17;;;2.70;84.70;;;;;;5019118;28;20022;-63
2020/12/04 04:44:26;;;;;;;44.35;22.40;;;2.70;84.80;;;;;;5034905;28;20017;-63
2020/12/04 04:47:13;;;;;;;44.53;23.95;;;2.70;85.00;;;;;;5020549;28;20497;-63
2020/12/04 04:49:49;;;;;;;46.40;21.75;;;2.70;84.90;;;;;;5033921;28;20392;-63
2020/12/04 04:52:15;;;;;;;41.30;20.40;;;2.70;85.00;;;;;;5037432;28;20369;-63
2020/12/04 04:54:49;;;;;;;39.88;19.63;;;2.70;85.10;;;;;;5035397;28;20033;-63
2020/12/04 04:57:19;;;;;;;42.13;20.25;;;2.70;85.20;;;;;;5033614;28;20025;-63
2020/12/04 04:59:45;;;;;;;42.47;22.15;;;2.70;85.40;;;;;;5027337;28;20162;-63
2020/12/04 05:02:12;;;;;;;47.83;23.13;;;2.80;85.40;;;;;;5032688;28;20101;-63
2020/12/04 05:04:52;;;;;;;47.72;25.00;;;2.80;85.00;;;;;;5028589;28;20029;-63
2020/12/04 05:07:30;;;;;;;48.42;24.40;;;2.70;84.50;;;;;;5031966;28;20022;-63
2020/12/04 05:10:13;;;;;;;41.60;19.33;;;2.70;84.50;;;;;;5033702;28;20029;-63
2020/12/04 05:12:54;;;;;;;45.30;23.08;;;2.60;84.60;;;;;;5033282;28;20084;-63
2020/12/04 05:15:24;;;;;;;44.45;22.13;;;2.60;85.00;;;;;;5042699;28;20029;-63
2020/12/04 05:18:11;;;;;;;49.60;23.70;;;2.60;85.10;;;;;;5033156;28;20025;-63
2020/12/04 05:20:38;;;;;;;47.65;23.17;;;2.50;85.00;;;;;;5022712;28;20029;-63
2020/12/04 05:23:05;;;;;;;42.40;21.77;;;2.50;85.10;;;;;;5033412;28;20025;-63
2020/12/04 05:25:41;;;;;;;42.40;21.83;;;2.50;85.20;;;;;;5043206;28;20557;-63
2020/12/04 05:28:19;;;;;;;44.92;22.33;;;2.60;85.50;;;;;;5036126;28;20491;-63
2020/12/04 05:31:05;;;;;;;35.45;19.55;;;2.60;85.90;;;;;;5028277;28;20030;-63
2020/12/04 05:33:30;;;;;;;38.22;18.42;;;2.70;85.80;;;;;;5027828;28;20037;-63
2020/12/04 05:35:56;;;;;;;38.80;18.83;;;2.80;85.30;;;;;;5031509;28;20037;-63
2020/12/04 05:38:22;;;;;;;41.53;19.20;;;2.80;85.10;;;;;;5021109;28;20017;-63
2020/12/04 05:41:08;;;;;;;29.70;17.20;;;2.80;84.80;;;;;;5020533;28;20030;-63
2020/12/04 05:43:37;;;;;;;44.85;21.17;;;2.90;84.70;;;;;;5031017;28;20026;-63
2020/12/04 05:46:22;;;;;;;41.80;20.48;;;2.90;84.70;;;;;;5024373;28;20392;-63
2020/12/04 05:48:59;;;;;;;40.45;20.92;;;2.90;85.00;;;;;;5022939;28;20358;-62
2020/12/04 05:51:31;;;;;;;48.85;23.35;;;2.90;84.50;;;;;;5033302;28;20025;-63
2020/12/04 05:53:57;;;;;;;56.63;26.00;;;2.90;84.20;;;;;;5027961;28;20025;-63
2020/12/04 05:56:24;;;;;;;53.15;28.45;;;2.90;83.80;;;;;;5029031;28;20916;-63
2020/12/04 05:58:55;;;;;;;45.25;22.75;;;2.80;83.30;;;;;;5025967;28;20040;-63
2020/12/04 06:01:22;;;;;;;53.38;24.63;;;2.70;83.70;;;;;;5023969;28;20030;-63
2020/12/04 06:03:52;;;;;;;54.47;25.65;;;2.70;83.70;;;;;;5029709;28;20362;-63
2020/12/04 06:06:27;;;;;;;46.65;21.40;;;2.60;83.70;;;;;;5024751;28;20029;-63
2020/12/04 06:09:05;;;;;;;49.00;23.92;;;2.60;84.10;;;;;;5033376;28;20025;-63
2020/12/04 06:11:32;;;;;;;44.97;21.70;;;2.60;84.20;;;;;;5025611;28;20038;-63
2020/12/04 06:13:59;;;;;;;42.90;20.70;;;2.60;84.90;;;;;;5036341;28;20017;-63
2020/12/04 06:16:25;;;;;;;42.38;20.80;;;2.60;84.70;;;;;;5040998;28;20138;-63
2020/12/04 06:18:51;;;;;;;49.25;22.45;;;2.70;84.70;;;;;;5029959;28;20033;-63
2020/12/04 06:21:43;;;;;;;42.47;24.02;;;2.70;84.60;;;;;;5019755;28;20026;-63
2020/12/04 06:24:09;;;;;;;35.00;18.90;;;2.80;84.50;;;;;;5037120;28;20469;-63
2020/12/04 06:26:49;;;;;;;44.72;22.63;;;2.80;84.30;;;;;;5026497;28;20048;-63
2020/12/04 06:29:15;;;;;;;50.05;23.98;;;2.80;84.30;;;;;;5019029;28;20029;-63
2020/12/04 06:31:41;;;;;;;50.10;24.33;;;2.80;83.50;;;;;;5023763;28;20477;-63
2020/12/04 06:34:21;;;;;;;43.97;22.98;;;2.70;83.30;;;;;;5028276;28;20243;-63
2020/12/04 06:36:48;;;;;;;47.88;21.48;;;2.70;83.50;;;;;;5028993;28;20029;-63
2020/12/04 06:39:29;;;;;;;46.78;23.05;;;2.60;83.80;;;;;;5029633;28;20025;-63
2020/12/04 06:41:55;;;;;;;62.03;27.85;;;2.60;84.00;;;;;;5023570;28;20057;-63
2020/12/04 06:44:23;;;;;;;52.95;25.63;;;2.60;83.80;;;;;;5027905;28;20481;-63
2020/12/04 06:46:51;;;;;;;52.72;24.58;;;2.60;83.80;;;;;;5021515;28;20033;-63
2020/12/04 06:52:15;;;;;;;50.80;23.30;;;2.50;83.80;;;;;;5026964;28;20033;-64
2020/12/04 06:54:42;;;;;;;;;;;2.50;84.10;;;;;;5028567;28;20059;-64
2020/12/04 06:57:08;;;;;;;48.05;19.60;;;2.40;84.20;;;;;;5028142;28;19912;-60
2020/12/04 06:59:39;;;;;;;40.13;20.50;;;2.50;84.70;;;;;;5025587;28;20032;-60
2020/12/04 07:02:15;;;;;;;57.05;26.25;;;2.50;84.80;;;;;;5030519;28;20013;-59
2020/12/04 07:05:02;;;;;;;54.25;24.95;;;2.60;84.50;;;;;;5023947;28;20080;-59
2020/12/04 07:07:28;;;;;;;47.42;25.42;;;2.50;84.10;;;;;;5021658;28;20096;-59
2020/12/04 07:10:03;;;;;;;49.40;25.50;;;2.50;84.30;;;;;;5024165;28;20033;-59
2020/12/04 07:12:30;;;;;;;43.70;22.38;;;2.50;84.40;;;;;;5021198;28;20116;-58
2020/12/04 07:14:58;;;;;;;40.72;21.23;;;2.50;84.50;;;;;;5012790;28;20037;-59
2020/12/04 07:17:26;;;;;;;44.95;22.85;;;2.50;84.50;;;;;;5019554;28;20477;-59
2020/12/04 07:19:54;;;;;;;49.25;22.88;;;2.50;84.70;;;;;;5025344;28;20083;-59
2020/12/04 07:22:22;;;;;;;53.80;24.05;;;2.60;84.80;;;;;;5025649;28;20385;-60
2020/12/04 07:24:49;;;;;;;48.92;23.02;;;2.60;84.50;;;;;;5026577;28;20022;-59
2020/12/04 07:27:17;;;;;;;49.70;23.83;;;2.60;84.70;;;;;;5017801;28;20369;-57
2020/12/04 07:29:44;;;;;;;40.78;21.90;;;2.70;84.60;;;;;;5028083;28;20380;-60
2020/12/04 07:32:10;;;;;;;46.13;23.50;;;2.70;84.30;;;;;;5027203;28;20021;-59
2020/12/04 07:34:38;;;;;;;45.10;22.92;;;2.70;84.30;;;;;;5021320;28;20033;-60
2020/12/04 07:37:08;;;;;;;50.17;24.27;;;2.70;84.00;;;;;;5027536;28;20029;-60
2020/12/04 07:39:36;;;;;;;42.03;22.60;;;2.70;84.10;;;;;;5022568;28;20026;-59
2020/12/04 07:42:03;;;;;;;38.00;21.23;;;2.70;84.10;;;;;;5025895;28;20381;-59
2020/12/04 07:44:35;;;;;;;44.38;21.98;;;2.70;84.30;;;;;;5022272;28;20727;-59
2020/12/04 07:47:17;;;;;;;45.38;22.10;;;2.80;85.00;;;;;;5016339;28;20026;-60
2020/12/04 07:49:45;;;;;;;;;;;2.80;83.80;;;;;;5022852;28;20083;-59
2020/12/04 07:52:24;;;;;;;40.28;20.02;;;2.70;83.50;;;;;;5017392;28;19912;-60
2020/12/04 07:55:20;;;;;;;35.60;18.80;;;2.70;83.60;;;;;;5014993;28;20041;-59
2020/12/04 07:57:53;;;;;;;32.53;17.38;;;2.70;83.70;;;;;;5023614;28;20046;-59
2020/12/04 08:00:19;;;;;;;40.63;20.05;;;2.80;83.90;;;;;;5020650;28;20021;-58
2020/12/04 08:02:45;;;;;;;39.13;20.73;;;2.80;83.60;;;;;;5014891;28;20378;-59
2020/12/04 08:05:20;;;;;;;39.88;20.15;;;2.80;83.60;;;;;;5016300;28;20022;-59
2020/12/04 08:07:51;;;;;;;33.97;18.38;;;2.80;83.40;;;;;;5011664;28;20026;-59
2020/12/04 08:10:18;;;;;;;34.50;20.30;;;2.80;83.70;;;;;;5014353;28;20040;-59
2020/12/04 08:12:44;;;;;;;36.13;20.98;;;2.90;83.40;;;;;;5012151;28;20801;-60
2020/12/04 08:15:11;;;;;;;38.53;20.38;;;2.90;83.30;;;;;;5017156;28;20076;-59
2020/12/04 08:17:37;;;;;;;39.97;19.77;;;2.90;83.30;;;;;;5019174;28;20033;-58
2020/12/04 08:20:14;;;;;;;43.30;22.25;;;2.80;83.00;;;;;;5020593;28;20025;-58
2020/12/04 08:22:40;;;;;;;36.67;20.48;;;2.80;83.10;;;;;;5021848;28;20029;-59
2020/12/04 08:25:11;;;;;;;38.38;19.38;;;2.80;83.10;;;;;;5018317;28;20026;-60
2020/12/04 08:27:43;;;;;;;34.65;20.63;;;2.80;83.10;;;;;;5021883;28;20088;-59
2020/12/04 08:30:14;;;;;;;35.50;19.30;;;2.80;83.30;;;;;;5022004;28;20119;-59
2020/12/04 08:32:40;;;;;;;;;;;2.80;83.30;;;;;;5016942;28;20021;-59
2020/12/04 08:35:19;;;;;;;34.47;18.15;;;2.80;83.20;;;;;;5016527;28;20086;-59
2020/12/04 08:37:46;;;;;;;32.08;19.45;;;2.80;83.50;;;;;;5018707;28;20464;-60
2020/12/04 08:40:24;;;;;;;36.40;20.52;;;2.90;83.40;;;;;;5021885;28;20037;-59
2020/12/04 08:42:52;;;;;;;34.28;19.83;;;2.90;82.90;;;;;;5017224;28;20037;-59
2020/12/04 08:45:25;;;;;;;37.17;21.75;;;2.90;83.00;;;;;;5019431;28;20029;-58
2020/12/04 08:47:51;;;;;;;36.35;21.70;;;2.80;83.00;;;;;;5014725;28;20179;-60
2020/12/04 08:50:23;;;;;;;38.83;22.15;;;2.90;83.40;;;;;;5019038;28;20113;-60
2020/12/04 08:52:51;;;;;;;36.65;20.30;;;2.90;83.00;;;;;;5012061;28;20048;-59
2020/12/04 08:55:22;;;;;;;31.55;18.35;;;2.90;82.60;;;;;;5012734;28;20037;-59
2020/12/04 08:57:50;;;;;;;33.58;19.75;;;2.90;82.80;;;;;;5013209;28;20022;-59
2020/12/04 09:00:27;;;;;;;37.72;21.70;;;2.90;83.20;;;;;;5019277;28;20392;-59
2020/12/04 09:02:53;;;;;;;37.88;19.45;;;2.90;83.20;;;;;;5016547;28;20154;-59
2020/12/04 09:05:19;;;;;;;37.28;19.52;;;2.90;83.00;;;;;;5012778;28;20436;-58
2020/12/04 09:07:45;;;;;;;34.28;18.40;;;2.90;83.00;;;;;;5015281;28;20029;-59
2020/12/04 09:10:18;;;;;;;32.13;17.52;;;2.90;83.50;;;;;;5019726;28;20199;-59
2020/12/04 09:12:51;;;;;;;27.52;16.48;;;3.00;83.50;;;;;;5021582;28;20029;-59
2020/12/04 09:15:23;;;;;;;33.30;18.70;;;3.10;83.50;;;;;;5023110;28;20612;-59
2020/12/04 09:17:49;;;;;;;34.28;19.52;;;3.10;83.00;;;;;;5014567;28;20018;-58
2020/12/04 09:20:15;;;;;;;33.67;18.02;;;3.10;82.60;;;;;;5019913;28;20025;-60
2020/12/04 09:22:41;;;;;;;33.00;20.05;;;3.10;82.50;;;;;;5015045;28;20033;-58
2020/12/04 09:25:13;;;;;;;34.90;20.33;;;3.10;82.50;;;;;;5015437;28;20103;-60
2020/12/04 09:27:39;;;;;;;33.17;18.88;;;3.10;82.50;;;;;;5007276;28;20091;-60
2020/12/04 09:30:07;;;;;;;26.13;16.85;;;3.10;82.10;;;;;;5016524;28;20132;-60
2020/12/04 09:32:33;;;;;;;34.17;19.17;;;3.10;82.10;;;;;;5015438;28;20346;-60
2020/12/04 09:34:59;;;;;;;35.92;20.50;;;3.10;82.30;;;;;;5017233;28;20033;-60
2020/12/04 09:37:30;;;;;;;30.67;19.80;;;3.10;82.20;;;;;;5020777;28;20045;-60
2020/12/04 09:40:08;;;;;;;35.87;18.00;;;3.00;82.10;;;;;;5019645;28;20042;-60
2020/12/04 09:42:35;;;;;;;29.23;17.10;;;3.00;82.10;;;;;;5018226;28;20317;-60
2020/12/04 09:45:01;;;;;;;34.97;19.35;;;2.90;82.10;;;;;;5015455;28;20022;-60
2020/12/04 09:47:30;;;;;;;36.30;18.88;;;3.00;82.30;;;;;;5014794;28;20041;-60
2020/12/04 09:49:56;;;;;;;30.80;17.63;;;3.00;82.20;;;;;;5019525;28;20497;-60
2020/12/04 09:52:23;;;;;;;31.13;18.45;;;3.00;82.50;;;;;;5015033;28;20033;-60
2020/12/04 09:54:49;;;;;;;34.70;18.27;;;3.00;82.50;;;;;;5014261;28;20079;-60
2020/12/04 09:57:16;;;;;;;29.95;17.38;;;3.00;82.30;;;;;;5018121;28;20087;-59
2020/12/04 09:59:42;;;;;;;26.10;16.23;;;3.00;82.00;;;;;;5012938;28;20117;-60
2020/12/04 10:02:09;;;;;;;29.95;16.63;;;3.00;82.20;;;;;;5014225;28;20036;-59
2020/12/04 10:04:35;;;;;;;25.50;15.10;;;3.10;82.60;;;;;;5009722;28;20378;-60
2020/12/04 10:07:01;;;;;;;32.67;17.95;;;3.10;82.40;;;;;;5010002;28;21617;-60
2020/12/04 10:09:30;;;;;;;28.38;16.88;;;3.10;82.40;;;;;;5014174;28;20087;-60
2020/12/04 10:11:56;;;;;;;22.60;14.25;;;3.20;82.40;;;;;;5014960;28;20088;-60
2020/12/04 10:14:22;;;;;;;27.77;16.45;;;3.30;82.40;;;;;;5014161;28;20029;-59
2020/12/04 10:16:49;;;;;;;27.30;16.75;;;3.30;81.80;;;;;;5006044;28;21872;-59
2020/12/04 10:19:16;;;;;;;30.55;19.20;;;3.30;81.40;;;;;;5004972;28;20780;-58
2020/12/04 10:21:43;;;;;;;29.25;17.48;;;3.30;81.10;;;;;;5015046;28;20026;-59
2020/12/04 10:24:09;;;;;;;29.02;16.85;;;3.20;81.10;;;;;;5009751;28;20746;-60
2020/12/04 10:26:39;;;;;;;31.17;18.10;;;3.20;81.50;;;;;;5012621;28;20128;-60
2020/12/04 10:29:06;;;;;;;28.77;16.40;;;3.30;81.30;;;;;;5015623;28;20072;-60
2020/12/04 10:31:32;;;;;;;29.42;17.77;;;3.20;80.60;;;;;;5007265;28;20022;-60
2020/12/04 10:33:58;;;;;;;26.73;15.93;;;3.20;80.90;;;;;;5016767;28;20038;-59
2020/12/04 10:36:26;;;;;;;31.05;16.85;;;3.10;80.70;;;;;;5024512;28;20035;-59
2020/12/04 10:38:52;;;;;;;24.77;16.17;;;3.10;80.90;;;;;;5012142;28;20037;-60
2020/12/04 10:41:18;;;;;;;29.02;17.55;;;3.10;81.20;;;;;;5009470;28;20781;-60
2020/12/04 10:43:43;;;;;;;29.80;17.77;;;3.10;81.20;;;;;;5009120;28;20030;-59
2020/12/04 10:46:09;;;;;;;33.40;19.33;;;3.10;81.30;;;;;;5009150;28;20026;-60
2020/12/04 10:48:35;;;;;;;40.30;22.88;;;3.00;81.10;;;;;;5011046;28;20034;-60
2020/12/04 10:51:00;;;;;;;32.75;19.25;;;3.00;81.10;;;;;;5013702;28;21045;-60
2020/12/04 10:53:26;;;;;;;33.10;21.05;;;2.90;81.00;;;;;;5011445;28;20037;-60
2020/12/04 10:55:53;;;;;;;36.22;21.63;;;2.90;81.20;;;;;;5010201;28;20126;-60
2020/12/04 10:58:18;;;;;;;34.53;20.75;;;2.90;81.60;;;;;;5012258;28;20033;-60
2020/12/04 11:00:51;;;;;;;36.72;20.63;;;2.90;81.40;;;;;;5006565;28;20025;-59
2020/12/04 11:03:26;;;;;;;37.25;20.52;;;2.90;81.30;;;;;;5011418;28;20034;-60
2020/12/04 11:05:52;;;;;;;35.92;19.60;;;2.90;81.80;;;;;;5009670;28;20041;-60
2020/12/04 11:08:17;;;;;;;31.83;17.73;;;2.80;82.00;;;;;;5014803;28;20040;-58
2020/12/04 11:10:44;;;;;;;30.75;17.17;;;2.80;82.00;;;;;;5012168;28;20040;-60
2020/12/04 11:13:10;;;;;;;30.20;17.65;;;2.90;81.90;;;;;;5014654;28;20087;-60
2020/12/04 11:15:36;;;;;;;31.95;16.70;;;2.90;82.10;;;;;;5014836;28;20037;-60
2020/12/04 11:18:02;;;;;;;34.80;19.65;;;2.90;81.90;;;;;;5012341;28;20040;-59
2020/12/04 11:20:28;;;;;;;31.42;19.85;;;2.90;81.90;;;;;;5021983;28;20032;-59
2020/12/04 11:22:54;;;;;;;38.90;21.33;;;2.90;81.90;;;;;;5016118;28;20017;-60
2020/12/04 11:25:21;;;;;;;32.95;19.90;;;2.90;82.20;;;;;;5013573;28;20491;-60
2020/12/04 11:27:48;;;;;;;38.22;20.48;;;2.90;81.50;;;;;;5011479;28;20401;-59
2020/12/04 11:30:18;;;;;;;35.75;19.05;;;2.80;81.60;;;;;;5011437;28;20029;-59
2020/12/04 11:32:45;;;;;;;33.25;20.38;;;2.80;81.60;;;;;;5016576;28;20045;-60
2020/12/04 11:35:12;;;;;;;33.72;19.55;;;2.80;81.70;;;;;;5014359;28;20040;-60
2020/12/04 11:37:40;;;;;;;38.35;21.35;;;2.80;81.90;;;;;;5020710;28;20044;-60
2020/12/04 11:40:07;;;;;;;38.42;20.38;;;2.80;81.80;;;;;;5022982;28;20037;-60
2020/12/04 11:42:34;;;;;;;32.97;18.45;;;2.80;81.70;;;;;;5014315;28;20038;-59
2020/12/04 11:45:00;;;;;;;31.45;19.60;;;2.70;82.10;;;;;;5014630;28;20049;-60
2020/12/04 11:47:27;;;;;;;33.03;18.70;;;2.80;82.10;;;;;;5021908;28;20025;-60
2020/12/04 11:49:56;;;;;;;31.60;18.83;;;2.80;82.30;;;;;;5010136;28;20030;-60
2020/12/04 11:52:21;;;;;;;34.30;19.42;;;2.80;82.40;;;;;;5013372;28;20033;-60
2020/12/04 11:54:47;;;;;;;41.60;21.25;;;2.80;82.20;;;;;;5016499;28;20040;-60
2020/12/04 11:57:13;;;;;;;32.65;20.23;;;2.80;81.90;;;;;;5013370;28;20033;-60
2020/12/04 11:59:39;;;;;;;34.10;19.77;;;2.80;82.10;;;;;;5018420;28;20036;-60
2020/12/04 12:02:06;;;;;;;41.85;21.95;;;2.90;82.20;;;;;;5016329;28;20029;-59
2020/12/04 12:04:32;;;;;;;35.47;21.83;;;2.90;82.30;;;;;;5017666;28;20028;-60
2020/12/04 12:06:58;;;;;;;47.92;25.20;;;2.90;82.00;;;;;;5018289;28;20100;-60
2020/12/04 12:09:24;;;;;;;46.53;24.30;;;2.90;82.00;;;;;;5020232;28;20117;-60
2020/12/04 12:11:50;;;;;;;48.83;24.80;;;2.90;82.00;;;;;;5019509;28;20112;-60
2020/12/04 12:14:16;;;;;;;52.00;26.20;;;2.90;81.90;;;;;;5017881;28;20033;-60
2020/12/04 12:16:48;;;;;;;55.50;26.42;;;3.00;81.90;;;;;;5016890;28;20033;-59
2020/12/04 12:19:14;;;;;;;67.88;32.22;;;2.90;81.70;;;;;;5015915;28;20481;-60
2020/12/04 12:21:43;;;;;;;60.10;32.60;;;2.90;81.50;;;;;;5012057;28;20026;-61
2020/12/04 12:24:12;;;;;;;63.38;31.60;;;2.90;82.00;;;;;;5012637;28;20485;-60
2020/12/04 12:26:37;;;;;;;81.80;36.70;;;2.90;82.10;;;;;;5015975;28;20036;-60
2020/12/04 12:29:03;;;;;;;88.22;40.88;;;2.90;81.90;;;;;;5016841;28;20393;-60
2020/12/04 12:31:29;;;;;;;94.28;42.10;;;2.90;81.90;;;;;;5018637;28;20030;-60
2020/12/04 12:33:56;;;;;;;83.85;37.65;;;3.00;82.00;;;;;;5015206;28;20552;-60
2020/12/04 12:36:22;;;;;;;84.13;38.70;;;2.90;81.90;;;;;;5018664;28;20061;-60
2020/12/04 12:38:48;;;;;;;83.50;38.65;;;3.00;81.90;;;;;;5015884;28;20078;-59
2020/12/04 12:41:14;;;;;;;88.55;36.78;;;2.90;81.80;;;;;;5017564;28;20033;-59
2020/12/04 12:43:40;;;;;;;80.55;36.92;;;3.00;81.90;;;;;;5014772;28;20476;-61
2020/12/04 12:46:05;;;;;;;84.53;38.75;;;3.00;81.80;;;;;;5011241;28;20033;-60